sensor_id;sensor_type;location;lat;lon;timestamp;P1;durP1;ratioP1;P2;durP2;ratioP2
17848;SDS011;9050;48.746;9.232;2022-09-23T00:00:43;1.23;;;1.23;;
17848;SDS011;9050;48.746;9.232;2022-09-23T00:03:10;1.00;;;1.00;;
17848;SDS011;9050;48.746;9.232;2022-09-23T00:05:36;1.00;;;1.00;;
17848;SDS011;9050;48.746;9.232;2022-09-23T00:08:03;1.00;;;1.00;;
17848;SDS011;9050;48.746;9.232;2022-09-23T00:10:34;0.70;;;0.70;;
17848;SDS011;9050;48.746;9.232;2022-09-23T00:13:02;0.80;;;0.80;;
17848;SDS011;9050;48.746;9.232;2022-09-23T00:15:37;1.07;;;1.07;;
17848;SDS011;9050;48.746;9.232;2022-09-23T00:18:04;0.83;;;0.83;;
17848;SDS011;9050;48.746;9.232;2022-09-23T00:20:32;1.10;;;1.10;;
17848;SDS011;9050;48.746;9.232;2022-09-23T00:22:59;0.97;;;0.97;;
17848;SDS011;9050;48.746;9.232;2022-09-23T00:25:25;1.10;;;1.10;;
17848;SDS011;9050;48.746;9.232;2022-09-23T00:27:54;1.00;;;1.00;;
17848;SDS011;9050;48.746;9.232;2022-09-23T00:30:21;0.80;;;0.80;;
17848;SDS011;9050;48.746;9.232;2022-09-23T00:32:48;1.10;;;1.10;;
17848;SDS011;9050;48.746;9.232;2022-09-23T00:35:14;1.07;;;1.07;;
17848;SDS011;9050;48.746;9.232;2022-09-23T00:37:40;1.00;;;1.00;;
17848;SDS011;9050;48.746;9.232;2022-09-23T00:40:07;0.90;;;0.90;;
17848;SDS011;9050;48.746;9.232;2022-09-23T00:42:36;1.20;;;1.20;;
17848;SDS011;9050;48.746;9.232;2022-09-23T00:45:03;1.00;;;1.00;;
17848;SDS011;9050;48.746;9.232;2022-09-23T00:47:32;0.90;;;0.90;;
17848;SDS011;9050;48.746;9.232;2022-09-23T00:50:02;0.90;;;0.90;;
17848;SDS011;9050;48.746;9.232;2022-09-23T00:52:34;0.83;;;0.83;;
17848;SDS011;9050;48.746;9.232;2022-09-23T00:55:03;0.80;;;0.80;;
17848;SDS011;9050;48.746;9.232;2022-09-23T00:57:32;1.03;;;1.03;;
17848;SDS011;9050;48.746;9.232;2022-09-23T01:00:01;0.93;;;0.93;;
17848;SDS011;9050;48.746;9.232;2022-09-23T01:02:30;0.90;;;0.90;;
17848;SDS011;9050;48.746;9.232;2022-09-23T01:04:56;1.13;;;1.13;;
17848;SDS011;9050;48.746;9.232;2022-09-23T01:07:28;1.07;;;1.07;;
17848;SDS011;9050;48.746;9.232;2022-09-23T01:09:55;0.80;;;0.80;;
17848;SDS011;9050;48.746;9.232;2022-09-23T01:12:29;1.20;;;1.20;;
17848;SDS011;9050;48.746;9.232;2022-09-23T01:15:10;1.10;;;1.10;;
17848;SDS011;9050;48.746;9.232;2022-09-23T01:17:44;1.10;;;1.10;;
17848;SDS011;9050;48.746;9.232;2022-09-23T01:23:12;0.90;;;0.90;;
17848;SDS011;9050;48.746;9.232;2022-09-23T01:25:56;1.00;;;1.00;;
17848;SDS011;9050;48.746;9.232;2022-09-23T01:28:43;1.10;;;1.10;;
17848;SDS011;9050;48.746;9.232;2022-09-23T01:31:24;0.90;;;0.90;;
17848;SDS011;9050;48.746;9.232;2022-09-23T01:34:00;0.90;;;0.90;;
17848;SDS011;9050;48.746;9.232;2022-09-23T01:36:36;1.00;;;1.00;;
17848;SDS011;9050;48.746;9.232;2022-09-23T01:39:09;1.00;;;1.00;;
17848;SDS011;9050;48.746;9.232;2022-09-23T01:41:46;1.00;;;1.00;;
17848;SDS011;9050;48.746;9.232;2022-09-23T01:44:23;1.20;;;1.20;;
17848;SDS011;9050;48.746;9.232;2022-09-23T01:46:57;1.00;;;1.00;;
17848;SDS011;9050;48.746;9.232;2022-09-23T01:49:32;0.90;;;0.90;;
17848;SDS011;9050;48.746;9.232;2022-09-23T01:52:05;1.10;;;1.10;;
17848;SDS011;9050;48.746;9.232;2022-09-23T01:54:36;0.87;;;0.87;;
17848;SDS011;9050;48.746;9.232;2022-09-23T01:57:07;1.20;;;1.20;;
17848;SDS011;9050;48.746;9.232;2022-09-23T01:59:37;0.90;;;0.90;;
17848;SDS011;9050;48.746;9.232;2022-09-23T02:02:07;1.10;;;1.10;;
17848;SDS011;9050;48.746;9.232;2022-09-23T02:04:36;1.10;;;1.10;;
17848;SDS011;9050;48.746;9.232;2022-09-23T02:07:10;0.90;;;0.90;;
17848;SDS011;9050;48.746;9.232;2022-09-23T02:09:43;0.80;;;0.80;;
17848;SDS011;9050;48.746;9.232;2022-09-23T02:12:15;1.17;;;1.17;;
17848;SDS011;9050;48.746;9.232;2022-09-23T02:14:45;0.90;;;0.90;;
17848;SDS011;9050;48.746;9.232;2022-09-23T02:17:16;1.00;;;1.00;;
17848;SDS011;9050;48.746;9.232;2022-09-23T02:19:49;0.97;;;0.97;;
17848;SDS011;9050;48.746;9.232;2022-09-23T02:22:19;1.10;;;1.10;;
17848;SDS011;9050;48.746;9.232;2022-09-23T02:24:50;1.00;;;1.00;;
17848;SDS011;9050;48.746;9.232;2022-09-23T02:27:19;0.90;;;0.90;;
17848;SDS011;9050;48.746;9.232;2022-09-23T02:29:55;1.20;;;1.20;;
17848;SDS011;9050;48.746;9.232;2022-09-23T02:32:28;1.00;;;1.00;;
17848;SDS011;9050;48.746;9.232;2022-09-23T02:34:58;1.00;;;1.00;;
17848;SDS011;9050;48.746;9.232;2022-09-23T02:37:30;1.17;;;1.17;;
17848;SDS011;9050;48.746;9.232;2022-09-23T02:40:08;0.80;;;0.80;;
17848;SDS011;9050;48.746;9.232;2022-09-23T02:42:44;1.33;;;1.33;;
17848;SDS011;9050;48.746;9.232;2022-09-23T02:45:15;0.93;;;0.93;;
17848;SDS011;9050;48.746;9.232;2022-09-23T02:47:43;0.93;;;0.93;;
17848;SDS011;9050;48.746;9.232;2022-09-23T02:50:12;0.90;;;0.90;;
17848;SDS011;9050;48.746;9.232;2022-09-23T02:52:43;0.90;;;0.90;;
17848;SDS011;9050;48.746;9.232;2022-09-23T02:55:10;0.90;;;0.90;;
17848;SDS011;9050;48.746;9.232;2022-09-23T02:57:41;1.20;;;1.20;;
17848;SDS011;9050;48.746;9.232;2022-09-23T03:00:07;0.80;;;0.80;;
17848;SDS011;9050;48.746;9.232;2022-09-23T03:02:40;1.00;;;1.00;;
17848;SDS011;9050;48.746;9.232;2022-09-23T03:05:23;0.87;;;0.87;;
17848;SDS011;9050;48.746;9.232;2022-09-23T03:07:57;1.30;;;1.30;;
17848;SDS011;9050;48.746;9.232;2022-09-23T03:10:40;1.10;;;1.10;;
17848;SDS011;9050;48.746;9.232;2022-09-23T03:13:15;1.20;;;1.20;;
17848;SDS011;9050;48.746;9.232;2022-09-23T03:15:48;1.00;;;1.00;;
17848;SDS011;9050;48.746;9.232;2022-09-23T03:18:23;1.10;;;1.10;;
17848;SDS011;9050;48.746;9.232;2022-09-23T03:20:57;1.10;;;1.10;;
17848;SDS011;9050;48.746;9.232;2022-09-23T03:23:28;1.27;;;1.27;;
17848;SDS011;9050;48.746;9.232;2022-09-23T03:25:58;0.90;;;0.90;;
17848;SDS011;9050;48.746;9.232;2022-09-23T03:28:33;1.00;;;1.00;;
17848;SDS011;9050;48.746;9.232;2022-09-23T03:31:01;0.93;;;0.93;;
17848;SDS011;9050;48.746;9.232;2022-09-23T03:33:29;1.10;;;1.10;;
17848;SDS011;9050;48.746;9.232;2022-09-23T03:35:58;1.00;;;1.00;;
17848;SDS011;9050;48.746;9.232;2022-09-23T03:38:46;1.00;;;1.00;;
17848;SDS011;9050;48.746;9.232;2022-09-23T03:41:17;1.27;;;1.27;;
17848;SDS011;9050;48.746;9.232;2022-09-23T03:43:52;1.07;;;1.07;;
17848;SDS011;9050;48.746;9.232;2022-09-23T03:46:22;1.10;;;1.10;;
17848;SDS011;9050;48.746;9.232;2022-09-23T03:48:54;1.30;;;1.30;;
17848;SDS011;9050;48.746;9.232;2022-09-23T03:51:24;1.40;;;1.40;;
17848;SDS011;9050;48.746;9.232;2022-09-23T03:53:50;1.10;;;1.10;;
17848;SDS011;9050;48.746;9.232;2022-09-23T03:56:16;1.40;;;1.40;;
17848;SDS011;9050;48.746;9.232;2022-09-23T03:58:43;0.90;;;0.90;;
17848;SDS011;9050;48.746;9.232;2022-09-23T04:01:10;1.10;;;1.10;;
17848;SDS011;9050;48.746;9.232;2022-09-23T04:03:38;1.30;;;1.30;;
17848;SDS011;9050;48.746;9.232;2022-09-23T04:06:06;1.10;;;1.10;;
17848;SDS011;9050;48.746;9.232;2022-09-23T04:08:32;1.07;;;1.07;;
17848;SDS011;9050;48.746;9.232;2022-09-23T04:10:59;1.17;;;1.17;;
17848;SDS011;9050;48.746;9.232;2022-09-23T04:13:26;0.90;;;0.90;;
17848;SDS011;9050;48.746;9.232;2022-09-23T04:15:53;1.20;;;1.20;;
17848;SDS011;9050;48.746;9.232;2022-09-23T04:18:20;1.10;;;1.10;;
17848;SDS011;9050;48.746;9.232;2022-09-23T04:20:46;1.03;;;1.03;;
17848;SDS011;9050;48.746;9.232;2022-09-23T04:23:13;1.10;;;1.10;;
17848;SDS011;9050;48.746;9.232;2022-09-23T04:25:42;1.10;;;1.10;;
17848;SDS011;9050;48.746;9.232;2022-09-23T04:28:09;0.90;;;0.90;;
17848;SDS011;9050;48.746;9.232;2022-09-23T04:30:37;1.00;;;1.00;;
17848;SDS011;9050;48.746;9.232;2022-09-23T04:33:05;1.00;;;1.00;;
17848;SDS011;9050;48.746;9.232;2022-09-23T04:35:31;1.20;;;1.20;;
17848;SDS011;9050;48.746;9.232;2022-09-23T04:37:58;1.20;;;1.20;;
17848;SDS011;9050;48.746;9.232;2022-09-23T04:40:25;0.97;;;0.97;;
17848;SDS011;9050;48.746;9.232;2022-09-23T04:42:54;1.00;;;1.00;;
17848;SDS011;9050;48.746;9.232;2022-09-23T04:45:21;1.10;;;1.10;;
17848;SDS011;9050;48.746;9.232;2022-09-23T04:47:47;0.97;;;0.97;;
17848;SDS011;9050;48.746;9.232;2022-09-23T04:50:13;0.97;;;0.97;;
17848;SDS011;9050;48.746;9.232;2022-09-23T04:52:40;1.00;;;1.00;;
17848;SDS011;9050;48.746;9.232;2022-09-23T04:55:07;0.93;;;0.93;;
17848;SDS011;9050;48.746;9.232;2022-09-23T04:57:34;1.10;;;1.10;;
17848;SDS011;9050;48.746;9.232;2022-09-23T05:00:01;1.10;;;1.10;;
17848;SDS011;9050;48.746;9.232;2022-09-23T05:02:28;1.20;;;1.20;;
17848;SDS011;9050;48.746;9.232;2022-09-23T05:04:56;1.00;;;1.00;;
17848;SDS011;9050;48.746;9.232;2022-09-23T05:07:22;1.23;;;1.23;;
17848;SDS011;9050;48.746;9.232;2022-09-23T05:09:50;1.00;;;1.00;;
17848;SDS011;9050;48.746;9.232;2022-09-23T05:12:16;0.93;;;0.93;;
17848;SDS011;9050;48.746;9.232;2022-09-23T05:14:46;1.20;;;1.20;;
17848;SDS011;9050;48.746;9.232;2022-09-23T05:17:12;1.00;;;1.00;;
17848;SDS011;9050;48.746;9.232;2022-09-23T05:19:39;0.97;;;0.97;;
17848;SDS011;9050;48.746;9.232;2022-09-23T05:22:06;0.97;;;0.97;;
17848;SDS011;9050;48.746;9.232;2022-09-23T05:24:32;1.20;;;1.20;;
17848;SDS011;9050;48.746;9.232;2022-09-23T05:26:59;1.03;;;1.03;;
17848;SDS011;9050;48.746;9.232;2022-09-23T05:29:25;1.20;;;1.20;;
17848;SDS011;9050;48.746;9.232;2022-09-23T05:31:53;1.00;;;1.00;;
17848;SDS011;9050;48.746;9.232;2022-09-23T05:34:19;0.90;;;0.90;;
17848;SDS011;9050;48.746;9.232;2022-09-23T05:36:47;1.00;;;1.00;;
17848;SDS011;9050;48.746;9.232;2022-09-23T05:39:15;0.80;;;0.80;;
17848;SDS011;9050;48.746;9.232;2022-09-23T05:41:41;1.07;;;1.07;;
17848;SDS011;9050;48.746;9.232;2022-09-23T05:44:08;1.10;;;1.10;;
17848;SDS011;9050;48.746;9.232;2022-09-23T05:46:36;0.80;;;0.80;;
17848;SDS011;9050;48.746;9.232;2022-09-23T05:49:03;0.90;;;0.90;;
17848;SDS011;9050;48.746;9.232;2022-09-23T05:51:40;0.80;;;0.80;;
17848;SDS011;9050;48.746;9.232;2022-09-23T05:54:06;0.90;;;0.90;;
17848;SDS011;9050;48.746;9.232;2022-09-23T05:56:35;0.90;;;0.90;;
17848;SDS011;9050;48.746;9.232;2022-09-23T05:59:05;0.90;;;0.90;;
17848;SDS011;9050;48.746;9.232;2022-09-23T06:01:32;0.80;;;0.80;;
17848;SDS011;9050;48.746;9.232;2022-09-23T06:04:00;0.80;;;0.80;;
17848;SDS011;9050;48.746;9.232;2022-09-23T06:06:30;0.60;;;0.60;;
17848;SDS011;9050;48.746;9.232;2022-09-23T06:08:57;0.70;;;0.70;;
17848;SDS011;9050;48.746;9.232;2022-09-23T06:11:28;0.50;;;0.50;;
17848;SDS011;9050;48.746;9.232;2022-09-23T06:13:55;0.50;;;0.50;;
17848;SDS011;9050;48.746;9.232;2022-09-23T06:16:25;0.40;;;0.40;;
17848;SDS011;9050;48.746;9.232;2022-09-23T06:18:52;0.30;;;0.30;;
17848;SDS011;9050;48.746;9.232;2022-09-23T06:21:18;0.20;;;0.20;;
17848;SDS011;9050;48.746;9.232;2022-09-23T06:23:46;0.30;;;0.30;;
17848;SDS011;9050;48.746;9.232;2022-09-23T06:26:13;0.30;;;0.30;;
17848;SDS011;9050;48.746;9.232;2022-09-23T06:28:41;0.20;;;0.20;;
17848;SDS011;9050;48.746;9.232;2022-09-23T06:31:09;0.20;;;0.20;;
17848;SDS011;9050;48.746;9.232;2022-09-23T06:33:37;0.20;;;0.20;;
17848;SDS011;9050;48.746;9.232;2022-09-23T06:36:04;0.20;;;0.20;;
17848;SDS011;9050;48.746;9.232;2022-09-23T06:38:31;0.10;;;0.10;;
17848;SDS011;9050;48.746;9.232;2022-09-23T06:40:59;0.13;;;0.13;;
17848;SDS011;9050;48.746;9.232;2022-09-23T06:43:26;0.10;;;0.10;;
17848;SDS011;9050;48.746;9.232;2022-09-23T06:45:52;0.15;;;0.15;;
17848;SDS011;9050;48.746;9.232;2022-09-23T06:48:19;0.20;;;0.20;;
17848;SDS011;9050;48.746;9.232;2022-09-23T06:50:46;0.00;;;0.00;;
17848;SDS011;9050;48.746;9.232;2022-09-23T06:53:13;0.10;;;0.10;;
17848;SDS011;9050;48.746;9.232;2022-09-23T06:55:40;0.10;;;0.10;;
17848;SDS011;9050;48.746;9.232;2022-09-23T06:58:08;0.15;;;0.15;;
17848;SDS011;9050;48.746;9.232;2022-09-23T07:00:35;0.20;;;0.20;;
17848;SDS011;9050;48.746;9.232;2022-09-23T07:03:04;0.20;;;0.20;;
17848;SDS011;9050;48.746;9.232;2022-09-23T07:05:31;0.20;;;0.20;;
17848;SDS011;9050;48.746;9.232;2022-09-23T07:07:57;0.20;;;0.20;;
17848;SDS011;9050;48.746;9.232;2022-09-23T07:10:25;0.20;;;0.20;;
17848;SDS011;9050;48.746;9.232;2022-09-23T07:12:53;0.15;;;0.15;;
17848;SDS011;9050;48.746;9.232;2022-09-23T07:15:20;0.20;;;0.20;;
17848;SDS011;9050;48.746;9.232;2022-09-23T07:17:48;0.30;;;0.30;;
17848;SDS011;9050;48.746;9.232;2022-09-23T07:20:15;0.20;;;0.20;;
17848;SDS011;9050;48.746;9.232;2022-09-23T07:22:41;0.25;;;0.25;;
17848;SDS011;9050;48.746;9.232;2022-09-23T07:25:08;0.20;;;0.20;;
17848;SDS011;9050;48.746;9.232;2022-09-23T07:27:36;0.10;;;0.10;;
17848;SDS011;9050;48.746;9.232;2022-09-23T07:30:03;0.10;;;0.10;;
17848;SDS011;9050;48.746;9.232;2022-09-23T07:32:31;0.20;;;0.20;;
17848;SDS011;9050;48.746;9.232;2022-09-23T07:34:58;0.10;;;0.10;;
17848;SDS011;9050;48.746;9.232;2022-09-23T07:37:24;0.10;;;0.10;;
17848;SDS011;9050;48.746;9.232;2022-09-23T07:39:51;0.10;;;0.10;;
17848;SDS011;9050;48.746;9.232;2022-09-23T07:42:17;0.10;;;0.10;;
17848;SDS011;9050;48.746;9.232;2022-09-23T07:44:45;0.10;;;0.10;;
17848;SDS011;9050;48.746;9.232;2022-09-23T07:47:11;0.10;;;0.10;;
17848;SDS011;9050;48.746;9.232;2022-09-23T07:49:39;0.10;;;0.10;;
17848;SDS011;9050;48.746;9.232;2022-09-23T07:52:05;0.10;;;0.10;;
17848;SDS011;9050;48.746;9.232;2022-09-23T07:54:32;0.20;;;0.20;;
17848;SDS011;9050;48.746;9.232;2022-09-23T07:57:01;0.10;;;0.10;;
17848;SDS011;9050;48.746;9.232;2022-09-23T07:59:27;0.20;;;0.20;;
17848;SDS011;9050;48.746;9.232;2022-09-23T08:01:53;0.10;;;0.10;;
17848;SDS011;9050;48.746;9.232;2022-09-23T08:04:21;0.20;;;0.20;;
17848;SDS011;9050;48.746;9.232;2022-09-23T08:06:51;0.20;;;0.20;;
17848;SDS011;9050;48.746;9.232;2022-09-23T08:09:19;0.30;;;0.30;;
17848;SDS011;9050;48.746;9.232;2022-09-23T08:11:47;0.20;;;0.20;;
17848;SDS011;9050;48.746;9.232;2022-09-23T08:14:15;0.20;;;0.20;;
17848;SDS011;9050;48.746;9.232;2022-09-23T08:16:42;0.30;;;0.30;;
17848;SDS011;9050;48.746;9.232;2022-09-23T08:19:09;0.22;;;0.22;;
17848;SDS011;9050;48.746;9.232;2022-09-23T08:21:36;0.20;;;0.20;;
17848;SDS011;9050;48.746;9.232;2022-09-23T08:24:04;0.20;;;0.20;;
17848;SDS011;9050;48.746;9.232;2022-09-23T08:26:31;0.20;;;0.20;;
17848;SDS011;9050;48.746;9.232;2022-09-23T08:28:58;0.22;;;0.22;;
17848;SDS011;9050;48.746;9.232;2022-09-23T08:31:24;0.30;;;0.30;;
17848;SDS011;9050;48.746;9.232;2022-09-23T08:33:52;0.22;;;0.22;;
17848;SDS011;9050;48.746;9.232;2022-09-23T08:36:19;0.28;;;0.28;;
17848;SDS011;9050;48.746;9.232;2022-09-23T08:38:46;0.30;;;0.30;;
17848;SDS011;9050;48.746;9.232;2022-09-23T08:41:15;0.22;;;0.22;;
17848;SDS011;9050;48.746;9.232;2022-09-23T08:43:46;0.20;;;0.20;;
17848;SDS011;9050;48.746;9.232;2022-09-23T08:46:17;0.20;;;0.20;;
17848;SDS011;9050;48.746;9.232;2022-09-23T08:48:46;0.20;;;0.20;;
17848;SDS011;9050;48.746;9.232;2022-09-23T08:51:14;0.40;;;0.40;;
17848;SDS011;9050;48.746;9.232;2022-09-23T08:53:47;0.30;;;0.30;;
17848;SDS011;9050;48.746;9.232;2022-09-23T08:56:15;0.30;;;0.30;;
17848;SDS011;9050;48.746;9.232;2022-09-23T08:58:50;0.30;;;0.30;;
17848;SDS011;9050;48.746;9.232;2022-09-23T09:01:25;0.20;;;0.20;;
17848;SDS011;9050;48.746;9.232;2022-09-23T09:03:58;0.22;;;0.22;;
17848;SDS011;9050;48.746;9.232;2022-09-23T09:06:26;0.40;;;0.40;;
17848;SDS011;9050;48.746;9.232;2022-09-23T09:08:58;0.30;;;0.30;;
17848;SDS011;9050;48.746;9.232;2022-09-23T09:11:30;0.33;;;0.33;;
17848;SDS011;9050;48.746;9.232;2022-09-23T09:14:01;0.30;;;0.30;;
17848;SDS011;9050;48.746;9.232;2022-09-23T09:16:42;0.30;;;0.30;;
17848;SDS011;9050;48.746;9.232;2022-09-23T09:19:21;0.20;;;0.20;;
17848;SDS011;9050;48.746;9.232;2022-09-23T09:22:04;0.30;;;0.30;;
17848;SDS011;9050;48.746;9.232;2022-09-23T09:24:40;0.20;;;0.20;;
17848;SDS011;9050;48.746;9.232;2022-09-23T09:27:12;0.20;;;0.20;;
17848;SDS011;9050;48.746;9.232;2022-09-23T09:29:39;0.25;;;0.25;;
17848;SDS011;9050;48.746;9.232;2022-09-23T09:32:11;0.20;;;0.20;;
17848;SDS011;9050;48.746;9.232;2022-09-23T09:34:45;0.20;;;0.20;;
17848;SDS011;9050;48.746;9.232;2022-09-23T09:37:19;0.20;;;0.20;;
17848;SDS011;9050;48.746;9.232;2022-09-23T09:39:50;0.32;;;0.32;;
17848;SDS011;9050;48.746;9.232;2022-09-23T09:42:18;0.30;;;0.30;;
17848;SDS011;9050;48.746;9.232;2022-09-23T09:44:48;0.30;;;0.30;;
17848;SDS011;9050;48.746;9.232;2022-09-23T09:47:23;0.22;;;0.22;;
17848;SDS011;9050;48.746;9.232;2022-09-23T09:50:02;0.20;;;0.20;;
17848;SDS011;9050;48.746;9.232;2022-09-23T09:52:30;0.20;;;0.20;;
17848;SDS011;9050;48.746;9.232;2022-09-23T09:55:14;0.22;;;0.22;;
17848;SDS011;9050;48.746;9.232;2022-09-23T09:57:51;0.20;;;0.20;;
17848;SDS011;9050;48.746;9.232;2022-09-23T10:03:32;0.20;;;0.20;;
17848;SDS011;9050;48.746;9.232;2022-09-23T10:06:11;0.30;;;0.30;;
17848;SDS011;9050;48.746;9.232;2022-09-23T10:08:40;0.20;;;0.20;;
17848;SDS011;9050;48.746;9.232;2022-09-23T10:11:12;0.30;;;0.30;;
17848;SDS011;9050;48.746;9.232;2022-09-23T10:13:40;0.20;;;0.20;;
17848;SDS011;9050;48.746;9.232;2022-09-23T10:16:11;0.20;;;0.20;;
17848;SDS011;9050;48.746;9.232;2022-09-23T10:18:47;0.20;;;0.20;;
17848;SDS011;9050;48.746;9.232;2022-09-23T10:21:25;0.20;;;0.20;;
17848;SDS011;9050;48.746;9.232;2022-09-23T10:23:58;0.20;;;0.20;;
17848;SDS011;9050;48.746;9.232;2022-09-23T10:26:27;0.20;;;0.20;;
17848;SDS011;9050;48.746;9.232;2022-09-23T10:28:57;0.20;;;0.20;;
17848;SDS011;9050;48.746;9.232;2022-09-23T10:31:27;0.30;;;0.30;;
17848;SDS011;9050;48.746;9.232;2022-09-23T10:33:57;0.20;;;0.20;;
17848;SDS011;9050;48.746;9.232;2022-09-23T10:36:28;0.30;;;0.30;;
17848;SDS011;9050;48.746;9.232;2022-09-23T10:38:58;0.30;;;0.30;;
17848;SDS011;9050;48.746;9.232;2022-09-23T10:41:41;0.20;;;0.20;;
17848;SDS011;9050;48.746;9.232;2022-09-23T10:44:47;0.32;;;0.32;;
17848;SDS011;9050;48.746;9.232;2022-09-23T10:47:44;0.20;;;0.20;;
17848;SDS011;9050;48.746;9.232;2022-09-23T10:50:18;0.20;;;0.20;;
17848;SDS011;9050;48.746;9.232;2022-09-23T10:53:00;0.30;;;0.30;;
17848;SDS011;9050;48.746;9.232;2022-09-23T10:55:34;0.20;;;0.20;;
17848;SDS011;9050;48.746;9.232;2022-09-23T10:58:27;0.20;;;0.20;;
17848;SDS011;9050;48.746;9.232;2022-09-23T11:01:16;0.20;;;0.20;;
17848;SDS011;9050;48.746;9.232;2022-09-23T11:06:47;0.20;;;0.20;;
17848;SDS011;9050;48.746;9.232;2022-09-23T11:09:29;0.20;;;0.20;;
17848;SDS011;9050;48.746;9.232;2022-09-23T11:12:07;0.20;;;0.20;;
17848;SDS011;9050;48.746;9.232;2022-09-23T11:14:50;0.20;;;0.20;;
17848;SDS011;9050;48.746;9.232;2022-09-23T11:17:46;0.20;;;0.20;;
17848;SDS011;9050;48.746;9.232;2022-09-23T11:20:46;0.10;;;0.10;;
17848;SDS011;9050;48.746;9.232;2022-09-23T11:23:31;0.20;;;0.20;;
17848;SDS011;9050;48.746;9.232;2022-09-23T11:26:11;0.20;;;0.20;;
17848;SDS011;9050;48.746;9.232;2022-09-23T11:32:00;0.28;;;0.28;;
17848;SDS011;9050;48.746;9.232;2022-09-23T11:37:27;0.30;;;0.30;;
17848;SDS011;9050;48.746;9.232;2022-09-23T11:39:59;0.20;;;0.20;;
17848;SDS011;9050;48.746;9.232;2022-09-23T11:42:30;0.20;;;0.20;;
17848;SDS011;9050;48.746;9.232;2022-09-23T11:45:01;0.20;;;0.20;;
17848;SDS011;9050;48.746;9.232;2022-09-23T11:47:32;0.20;;;0.20;;
17848;SDS011;9050;48.746;9.232;2022-09-23T11:50:03;0.30;;;0.30;;
17848;SDS011;9050;48.746;9.232;2022-09-23T11:52:39;0.30;;;0.30;;
17848;SDS011;9050;48.746;9.232;2022-09-23T11:55:11;0.30;;;0.30;;
17848;SDS011;9050;48.746;9.232;2022-09-23T11:57:44;0.28;;;0.28;;
17848;SDS011;9050;48.746;9.232;2022-09-23T12:00:15;0.20;;;0.20;;
17848;SDS011;9050;48.746;9.232;2022-09-23T12:02:47;0.20;;;0.20;;
17848;SDS011;9050;48.746;9.232;2022-09-23T12:05:24;0.20;;;0.20;;
17848;SDS011;9050;48.746;9.232;2022-09-23T12:07:56;0.20;;;0.20;;
17848;SDS011;9050;48.746;9.232;2022-09-23T12:10:34;0.20;;;0.20;;
17848;SDS011;9050;48.746;9.232;2022-09-23T12:13:12;0.20;;;0.20;;
17848;SDS011;9050;48.746;9.232;2022-09-23T12:15:48;0.20;;;0.20;;
17848;SDS011;9050;48.746;9.232;2022-09-23T12:18:29;0.30;;;0.30;;
17848;SDS011;9050;48.746;9.232;2022-09-23T12:21:12;0.20;;;0.20;;
17848;SDS011;9050;48.746;9.232;2022-09-23T12:23:57;0.20;;;0.20;;
17848;SDS011;9050;48.746;9.232;2022-09-23T12:26:39;0.20;;;0.20;;
17848;SDS011;9050;48.746;9.232;2022-09-23T12:29:13;0.20;;;0.20;;
17848;SDS011;9050;48.746;9.232;2022-09-23T12:31:42;0.20;;;0.20;;
17848;SDS011;9050;48.746;9.232;2022-09-23T12:34:18;0.20;;;0.20;;
17848;SDS011;9050;48.746;9.232;2022-09-23T12:36:48;0.30;;;0.30;;
17848;SDS011;9050;48.746;9.232;2022-09-23T12:39:23;0.20;;;0.20;;
17848;SDS011;9050;48.746;9.232;2022-09-23T12:41:56;0.22;;;0.22;;
17848;SDS011;9050;48.746;9.232;2022-09-23T12:44:31;0.20;;;0.20;;
17848;SDS011;9050;48.746;9.232;2022-09-23T12:50:21;0.20;;;0.20;;
17848;SDS011;9050;48.746;9.232;2022-09-23T12:56:26;0.30;;;0.30;;
17848;SDS011;9050;48.746;9.232;2022-09-23T12:59:20;0.20;;;0.20;;
17848;SDS011;9050;48.746;9.232;2022-09-23T13:01:50;0.30;;;0.30;;
17848;SDS011;9050;48.746;9.232;2022-09-23T13:04:30;0.20;;;0.20;;
17848;SDS011;9050;48.746;9.232;2022-09-23T13:07:17;0.20;;;0.20;;
17848;SDS011;9050;48.746;9.232;2022-09-23T13:09:48;0.20;;;0.20;;
17848;SDS011;9050;48.746;9.232;2022-09-23T13:12:19;0.20;;;0.20;;
17848;SDS011;9050;48.746;9.232;2022-09-23T13:14:50;0.30;;;0.30;;
17848;SDS011;9050;48.746;9.232;2022-09-23T13:17:22;0.20;;;0.20;;
17848;SDS011;9050;48.746;9.232;2022-09-23T13:19:57;0.20;;;0.20;;
17848;SDS011;9050;48.746;9.232;2022-09-23T13:23:04;0.20;;;0.20;;
17848;SDS011;9050;48.746;9.232;2022-09-23T13:25:31;0.20;;;0.20;;
17848;SDS011;9050;48.746;9.232;2022-09-23T13:28:03;0.20;;;0.20;;
17848;SDS011;9050;48.746;9.232;2022-09-23T13:30:51;0.20;;;0.20;;
17848;SDS011;9050;48.746;9.232;2022-09-23T13:33:20;0.20;;;0.20;;
17848;SDS011;9050;48.746;9.232;2022-09-23T13:35:56;0.20;;;0.20;;
17848;SDS011;9050;48.746;9.232;2022-09-23T13:38:28;0.20;;;0.20;;
17848;SDS011;9050;48.746;9.232;2022-09-23T13:40:59;0.20;;;0.20;;
17848;SDS011;9050;48.746;9.232;2022-09-23T13:43:29;0.20;;;0.20;;
17848;SDS011;9050;48.746;9.232;2022-09-23T13:45:58;0.30;;;0.30;;
17848;SDS011;9050;48.746;9.232;2022-09-23T13:48:29;0.20;;;0.20;;
17848;SDS011;9050;48.746;9.232;2022-09-23T13:50:56;0.20;;;0.20;;
17848;SDS011;9050;48.746;9.232;2022-09-23T13:53:23;0.20;;;0.20;;
17848;SDS011;9050;48.746;9.232;2022-09-23T13:56:00;0.20;;;0.20;;
17848;SDS011;9050;48.746;9.232;2022-09-23T13:58:28;0.20;;;0.20;;
17848;SDS011;9050;48.746;9.232;2022-09-23T14:00:56;0.20;;;0.20;;
17848;SDS011;9050;48.746;9.232;2022-09-23T14:03:24;0.20;;;0.20;;
17848;SDS011;9050;48.746;9.232;2022-09-23T14:05:52;0.20;;;0.20;;
17848;SDS011;9050;48.746;9.232;2022-09-23T14:08:20;0.20;;;0.20;;
17848;SDS011;9050;48.746;9.232;2022-09-23T14:10:46;0.20;;;0.20;;
17848;SDS011;9050;48.746;9.232;2022-09-23T14:13:14;0.20;;;0.20;;
17848;SDS011;9050;48.746;9.232;2022-09-23T14:15:43;0.20;;;0.20;;
17848;SDS011;9050;48.746;9.232;2022-09-23T14:18:12;0.20;;;0.20;;
17848;SDS011;9050;48.746;9.232;2022-09-23T14:20:46;0.20;;;0.20;;
17848;SDS011;9050;48.746;9.232;2022-09-23T14:23:14;0.20;;;0.20;;
17848;SDS011;9050;48.746;9.232;2022-09-23T14:25:43;0.20;;;0.20;;
17848;SDS011;9050;48.746;9.232;2022-09-23T14:28:11;0.20;;;0.20;;
17848;SDS011;9050;48.746;9.232;2022-09-23T14:30:41;0.20;;;0.20;;
17848;SDS011;9050;48.746;9.232;2022-09-23T14:33:12;0.20;;;0.20;;
17848;SDS011;9050;48.746;9.232;2022-09-23T14:35:42;0.20;;;0.20;;
17848;SDS011;9050;48.746;9.232;2022-09-23T14:38:18;0.20;;;0.20;;
17848;SDS011;9050;48.746;9.232;2022-09-23T14:41:10;0.20;;;0.20;;
17848;SDS011;9050;48.746;9.232;2022-09-23T14:43:51;0.20;;;0.20;;
17848;SDS011;9050;48.746;9.232;2022-09-23T14:46:21;0.30;;;0.30;;
17848;SDS011;9050;48.746;9.232;2022-09-23T14:48:52;0.30;;;0.30;;
17848;SDS011;9050;48.746;9.232;2022-09-23T14:51:21;0.20;;;0.20;;
17848;SDS011;9050;48.746;9.232;2022-09-23T14:53:54;0.20;;;0.20;;
17848;SDS011;9050;48.746;9.232;2022-09-23T14:56:41;0.20;;;0.20;;
17848;SDS011;9050;48.746;9.232;2022-09-23T14:59:21;0.20;;;0.20;;
17848;SDS011;9050;48.746;9.232;2022-09-23T15:01:50;0.30;;;0.30;;
17848;SDS011;9050;48.746;9.232;2022-09-23T15:04:18;0.20;;;0.20;;
17848;SDS011;9050;48.746;9.232;2022-09-23T15:06:56;0.20;;;0.20;;
17848;SDS011;9050;48.746;9.232;2022-09-23T15:09:25;0.20;;;0.20;;
17848;SDS011;9050;48.746;9.232;2022-09-23T15:11:55;0.20;;;0.20;;
17848;SDS011;9050;48.746;9.232;2022-09-23T15:14:26;0.28;;;0.28;;
17848;SDS011;9050;48.746;9.232;2022-09-23T15:16:54;0.20;;;0.20;;
17848;SDS011;9050;48.746;9.232;2022-09-23T15:19:21;0.20;;;0.20;;
17848;SDS011;9050;48.746;9.232;2022-09-23T15:21:49;0.20;;;0.20;;
17848;SDS011;9050;48.746;9.232;2022-09-23T15:24:37;0.17;;;0.17;;
17848;SDS011;9050;48.746;9.232;2022-09-23T15:27:10;0.20;;;0.20;;
17848;SDS011;9050;48.746;9.232;2022-09-23T15:29:55;0.20;;;0.20;;
17848;SDS011;9050;48.746;9.232;2022-09-23T15:32:32;0.30;;;0.30;;
17848;SDS011;9050;48.746;9.232;2022-09-23T15:34:58;0.20;;;0.20;;
17848;SDS011;9050;48.746;9.232;2022-09-23T15:37:24;0.20;;;0.20;;
17848;SDS011;9050;48.746;9.232;2022-09-23T15:39:51;0.30;;;0.30;;
17848;SDS011;9050;48.746;9.232;2022-09-23T15:42:17;0.30;;;0.30;;
17848;SDS011;9050;48.746;9.232;2022-09-23T15:44:43;0.30;;;0.30;;
17848;SDS011;9050;48.746;9.232;2022-09-23T15:47:12;0.30;;;0.30;;